createdAt,value
2022-12-08T00:01:25.512Z,-0.51
2022-12-08T00:03:52.459Z,-0.54
2022-12-08T00:06:58.286Z,-0.51
2022-12-08T00:09:42.912Z,-0.54
2022-12-08T00:12:16.524Z,-0.56
2022-12-08T00:14:46.745Z,-0.44
2022-12-08T00:17:15.531Z,-0.41
2022-12-08T00:19:42.860Z,-0.35
2022-12-08T00:22:10.990Z,-0.32
2022-12-08T00:24:39.817Z,-0.25
2022-12-08T00:27:13.743Z,-0.14
2022-12-08T00:29:40.795Z,-0.11
2022-12-08T00:32:07.643Z,-0.23
2022-12-08T00:34:35.298Z,-0.28
2022-12-08T00:37:02.083Z,-0.34
2022-12-08T00:39:29.009Z,-0.41
2022-12-08T00:42:14.474Z,-0.42
2022-12-08T00:44:43.893Z,-0.43
2022-12-08T00:47:11.780Z,-0.48
2022-12-08T00:49:38.689Z,-0.46
2022-12-08T00:52:05.701Z,-0.39
2022-12-08T00:54:32.615Z,-0.38
2022-12-08T00:56:59.387Z,-0.45
2022-12-08T00:59:26.134Z,-0.44
2022-12-08T01:01:52.878Z,-0.48
2022-12-08T01:04:20.413Z,-0.52
2022-12-08T01:06:48.946Z,-0.57
2022-12-08T01:09:16.607Z,-0.55
2022-12-08T01:11:44.623Z,-0.57
2022-12-08T01:14:11.779Z,-0.59
2022-12-08T01:16:41.184Z,-0.59
2022-12-08T01:19:08.165Z,-0.64
2022-12-08T01:21:34.915Z,-0.65
2022-12-08T01:24:02.753Z,-0.65
2022-12-08T01:26:29.877Z,-0.63
2022-12-08T01:28:56.733Z,-0.69
2022-12-08T01:31:24.141Z,-0.67
2022-12-08T01:33:51.267Z,-0.67
2022-12-08T01:36:29.419Z,-0.71
2022-12-08T01:39:01.176Z,-0.71
2022-12-08T01:41:31.340Z,-0.72
2022-12-08T01:44:08.910Z,-0.77
2022-12-08T01:46:38.402Z,-0.76
2022-12-08T01:49:13.620Z,-0.77
2022-12-08T01:51:58.623Z,-0.77
2022-12-08T01:54:30.781Z,-0.72
2022-12-08T01:57:06.666Z,-0.68
2022-12-08T01:59:39.173Z,-0.66
2022-12-08T02:02:06.073Z,-0.58
2022-12-08T02:04:32.839Z,-0.55
2022-12-08T02:07:03.685Z,-0.56
2022-12-08T02:09:35.921Z,-0.59
2022-12-08T02:12:02.825Z,-0.51
2022-12-08T02:14:29.545Z,-0.51
2022-12-08T02:17:15.054Z,-0.46
2022-12-08T02:19:47.877Z,-0.43
2022-12-08T02:22:39.557Z,-0.39
2022-12-08T02:25:09.518Z,-0.40
2022-12-08T02:28:01.048Z,-0.45
2022-12-08T02:30:38.289Z,-0.49
2022-12-08T02:33:49.720Z,-0.49
2022-12-08T02:36:45.379Z,-0.51
2022-12-08T02:39:18.230Z,-0.49
2022-12-08T02:42:06.391Z,-0.49
2022-12-08T02:44:36.307Z,-0.46
2022-12-08T02:47:14.684Z,-0.49
2022-12-08T02:49:41.478Z,-0.48
2022-12-08T02:52:14.149Z,-0.45
2022-12-08T02:54:46.560Z,-0.48
2022-12-08T02:57:21.751Z,-0.55
2022-12-08T03:00:04.684Z,-0.55
2022-12-08T03:16:01.757Z,-0.62
2022-12-08T03:18:34.603Z,-0.63
2022-12-08T03:21:02.210Z,-0.64
2022-12-08T03:23:30.718Z,-0.70
2022-12-08T03:26:13.047Z,-0.63
2022-12-08T03:28:39.941Z,-0.68
2022-12-08T03:31:12.594Z,-0.69
2022-12-08T03:33:43.424Z,-0.68
2022-12-08T03:36:12.446Z,-0.66
2022-12-08T03:38:43.683Z,-0.63
2022-12-08T03:41:19.827Z,-0.61
2022-12-08T03:43:48.739Z,-0.57
2022-12-08T03:46:16.798Z,-0.58
2022-12-08T03:48:43.983Z,-0.50
2022-12-08T03:51:11.187Z,-0.44
2022-12-08T03:53:38.256Z,-0.40
2022-12-08T03:56:13.972Z,-0.35
2022-12-08T03:58:40.739Z,-0.39
2022-12-08T04:01:07.597Z,-0.41
2022-12-08T04:03:34.461Z,-0.41
2022-12-08T04:06:01.188Z,-0.42
2022-12-08T04:08:28.313Z,-0.35
2022-12-08T04:10:55.122Z,-0.34
2022-12-08T04:13:21.921Z,-0.31
2022-12-08T04:15:49.302Z,-0.33
2022-12-08T04:18:16.157Z,-0.31
2022-12-08T04:20:44.719Z,-0.30
2022-12-08T04:23:12.465Z,-0.28
2022-12-08T04:25:39.754Z,-0.19
2022-12-08T04:28:06.949Z,-0.08
2022-12-08T04:30:34.112Z,-0.04
2022-12-08T04:33:00.877Z,0.05
2022-12-08T04:35:28.311Z,0.04
2022-12-08T04:37:55.208Z,0.04
2022-12-08T04:40:21.902Z,0.01
2022-12-08T04:42:48.796Z,-0.01
2022-12-08T04:45:16.912Z,0.00
2022-12-08T04:47:45.138Z,-0.04
2022-12-08T04:50:13.186Z,-0.12
2022-12-08T04:52:40.477Z,-0.11
2022-12-08T04:55:07.557Z,-0.12
2022-12-08T04:57:34.470Z,-0.11
2022-12-08T05:00:01.345Z,-0.14
2022-12-08T05:02:28.374Z,-0.14
2022-12-08T05:04:55.142Z,-0.13
2022-12-08T05:07:21.866Z,-0.12
2022-12-08T05:09:48.738Z,-0.09
2022-12-08T05:12:15.701Z,-0.08
2022-12-08T05:14:42.566Z,-0.12
2022-12-08T05:17:10.005Z,-0.18
2022-12-08T05:19:36.831Z,-0.23
2022-12-08T05:22:03.665Z,-0.24
2022-12-08T05:24:30.447Z,-0.22
2022-12-08T05:26:57.403Z,-0.21
2022-12-08T05:29:24.190Z,-0.27
2022-12-08T05:31:51.194Z,-0.22
2022-12-08T05:34:18.127Z,-0.28
2022-12-08T05:36:45.029Z,-0.24
2022-12-08T05:39:13.501Z,-0.24
2022-12-08T05:41:40.995Z,-0.21
2022-12-08T05:44:08.446Z,-0.19
2022-12-08T05:46:35.458Z,-0.22
2022-12-08T05:49:03.665Z,-0.23
2022-12-08T05:51:30.434Z,-0.19
2022-12-08T05:53:57.569Z,-0.22
2022-12-08T05:56:24.927Z,-0.19
2022-12-08T05:58:51.733Z,-0.17
2022-12-08T06:01:20.271Z,-0.19
2022-12-08T06:04:11.771Z,-0.18
2022-12-08T06:06:38.605Z,-0.15
2022-12-08T06:09:06.146Z,-0.16
2022-12-08T06:11:33.807Z,-0.08
2022-12-08T06:14:00.907Z,-0.06
2022-12-08T06:16:28.492Z,-0.05
2022-12-08T06:18:55.991Z,-0.11
2022-12-08T06:21:23.235Z,-0.06
2022-12-08T06:23:51.768Z,-0.06
2022-12-08T06:26:19.595Z,-0.06
2022-12-08T06:28:46.797Z,0.02
2022-12-08T06:31:19.848Z,0.04
2022-12-08T06:33:47.068Z,0.04
2022-12-08T06:36:15.869Z,0.06
2022-12-08T06:38:43.981Z,0.08
2022-12-08T06:41:12.043Z,0.07
2022-12-08T06:43:38.850Z,0.09
2022-12-08T06:46:08.336Z,0.11
2022-12-08T06:48:35.183Z,0.12
2022-12-08T06:51:10.313Z,0.12
2022-12-08T06:53:37.480Z,0.12
2022-12-08T06:56:04.817Z,0.09
2022-12-08T06:58:31.845Z,0.11
2022-12-08T07:01:04.633Z,0.09
2022-12-08T07:03:34.868Z,0.08
2022-12-08T07:06:04.459Z,0.10
2022-12-08T07:08:33.098Z,0.13
2022-12-08T07:11:00.432Z,0.13
2022-12-08T07:13:27.171Z,0.13
2022-12-08T07:15:54.020Z,0.19
2022-12-08T07:18:20.757Z,0.22
2022-12-08T07:20:47.541Z,0.26
2022-12-08T07:23:14.998Z,0.31
2022-12-08T07:25:41.665Z,0.30
2022-12-08T07:28:09.978Z,0.34
2022-12-08T07:30:36.955Z,0.39
2022-12-08T07:33:05.819Z,0.37
2022-12-08T07:35:34.865Z,0.33
2022-12-08T07:38:26.603Z,0.33
2022-12-08T07:40:54.345Z,0.35
2022-12-08T07:43:22.121Z,0.37
2022-12-08T07:45:50.033Z,0.37
2022-12-08T07:48:17.547Z,0.34
2022-12-08T07:50:44.724Z,0.34
2022-12-08T07:53:11.999Z,0.29
2022-12-08T07:55:43.980Z,0.32
2022-12-08T07:58:11.647Z,0.33
2022-12-08T08:00:38.632Z,0.29
2022-12-08T08:03:06.279Z,0.42
2022-12-08T08:05:33.127Z,0.46
2022-12-08T08:07:59.951Z,0.46
2022-12-08T08:10:26.830Z,0.48
2022-12-08T08:12:53.648Z,0.52
2022-12-08T08:15:21.359Z,0.53
2022-12-08T08:17:53.519Z,0.50
2022-12-08T08:20:22.076Z,0.50
2022-12-08T08:22:51.122Z,0.51
2022-12-08T08:25:19.281Z,0.50
2022-12-08T08:27:47.267Z,0.46
2022-12-08T08:30:20.090Z,0.44
2022-12-08T08:32:48.701Z,0.43
2022-12-08T08:35:16.713Z,0.44
2022-12-08T08:37:48.849Z,0.45
2022-12-08T08:40:18.238Z,0.44
2022-12-08T08:42:45.030Z,0.47
2022-12-08T08:45:12.408Z,0.57
2022-12-08T08:47:39.293Z,0.62
2022-12-08T08:50:07.060Z,0.70
2022-12-08T08:52:34.195Z,0.75
2022-12-08T08:55:01.042Z,0.73
2022-12-08T08:57:28.407Z,0.78
2022-12-08T08:59:55.235Z,0.81
2022-12-08T09:02:22.525Z,0.84
2022-12-08T09:04:49.458Z,0.82
2022-12-08T09:07:16.319Z,0.88
2022-12-08T09:09:43.627Z,0.88
2022-12-08T09:12:15.817Z,0.95
2022-12-08T09:14:42.620Z,0.98
2022-12-08T09:17:10.904Z,1.02
2022-12-08T09:19:37.877Z,1.04
2022-12-08T09:22:05.543Z,0.96
2022-12-08T09:24:33.510Z,0.98
2022-12-08T09:27:00.326Z,1.01
2022-12-08T09:29:32.492Z,0.99
2022-12-08T09:32:04.094Z,0.98
2022-12-08T09:34:31.887Z,1.02
2022-12-08T09:36:59.490Z,1.07
2022-12-08T09:39:26.353Z,1.06
2022-12-08T09:42:04.400Z,1.09
2022-12-08T09:45:01.445Z,1.11
2022-12-08T09:47:36.196Z,1.16
2022-12-08T09:50:08.354Z,1.19
2022-12-08T09:52:45.867Z,1.21
2022-12-08T09:55:20.751Z,1.17
2022-12-08T09:57:56.432Z,1.18
2022-12-08T10:00:23.530Z,1.16
2022-12-08T10:02:50.344Z,1.17
2022-12-08T10:05:17.449Z,1.15
2022-12-08T10:08:08.433Z,1.19
2022-12-08T10:10:42.262Z,1.20
2022-12-08T10:13:46.701Z,1.11
2022-12-08T10:16:33.825Z,1.08
2022-12-08T10:19:12.136Z,1.00
2022-12-08T10:21:40.649Z,0.96
2022-12-08T10:24:18.835Z,1.04
2022-12-08T10:26:47.027Z,0.97
2022-12-08T10:29:14.518Z,1.02
2022-12-08T10:31:42.616Z,1.04
2022-12-08T10:34:23.414Z,1.08
2022-12-08T10:36:56.515Z,1.11
2022-12-08T10:39:39.622Z,1.13
2022-12-08T10:42:18.875Z,1.16
2022-12-08T10:45:08.611Z,1.16
2022-12-08T10:47:38.392Z,1.11
2022-12-08T10:50:22.345Z,1.11
2022-12-08T10:52:58.998Z,1.11
2022-12-08T10:55:26.470Z,1.12
2022-12-08T10:57:53.456Z,1.08
2022-12-08T11:00:23.544Z,1.11
2022-12-08T11:02:59.409Z,1.12
2022-12-08T11:05:36.648Z,1.16
2022-12-08T11:08:05.229Z,1.06
2022-12-08T11:10:35.795Z,1.12
2022-12-08T11:13:06.345Z,1.11
2022-12-08T11:15:38.980Z,1.12
2022-12-08T11:18:28.223Z,1.12
2022-12-08T11:21:13.546Z,1.19
2022-12-08T11:23:43.032Z,1.22
2022-12-08T11:26:31.448Z,1.31
2022-12-08T11:28:58.722Z,1.30
2022-12-08T11:31:31.107Z,1.29
2022-12-08T11:34:00.475Z,1.41
2022-12-08T11:36:32.160Z,1.31
2022-12-08T11:39:02.586Z,1.37
2022-12-08T11:41:42.011Z,1.38
2022-12-08T11:44:45.168Z,1.38
2022-12-08T11:47:22.635Z,1.39
2022-12-08T11:49:56.819Z,1.40
2022-12-08T11:52:33.904Z,1.39
2022-12-08T11:58:29.401Z,1.44
2022-12-08T12:00:56.740Z,1.39
2022-12-08T12:03:28.711Z,1.43
2022-12-08T12:06:46.386Z,1.47
2022-12-08T12:09:16.826Z,1.50
2022-12-08T12:12:36.279Z,1.53
2022-12-08T12:15:38.141Z,1.57
2022-12-08T12:18:16.898Z,1.63
2022-12-08T12:20:46.810Z,1.59
2022-12-08T12:23:37.288Z,1.68
2022-12-08T12:26:07.753Z,1.75
2022-12-08T12:28:49.732Z,1.76
2022-12-08T12:31:21.987Z,1.63
2022-12-08T12:33:49.655Z,1.62
2022-12-08T12:36:21.566Z,1.78
2022-12-08T12:39:03.545Z,1.78
2022-12-08T12:41:55.861Z,1.73
2022-12-08T12:44:28.025Z,1.70
2022-12-08T12:46:56.850Z,1.70
2022-12-08T12:49:46.060Z,1.78
2022-12-08T12:52:15.715Z,1.82
2022-12-08T12:55:03.878Z,1.87
2022-12-08T12:57:57.287Z,1.84
2022-12-08T13:00:26.971Z,1.78
2022-12-08T13:02:57.434Z,1.77
2022-12-08T13:05:28.815Z,1.79
2022-12-08T13:08:00.370Z,1.81
2022-12-08T13:10:40.251Z,1.89
2022-12-08T13:13:17.973Z,1.92
2022-12-08T13:15:57.449Z,2.01
2022-12-08T13:18:29.115Z,2.05
2022-12-08T13:21:15.056Z,2.12
2022-12-08T13:23:48.020Z,2.15
2022-12-08T13:26:21.924Z,2.19
2022-12-08T13:29:04.052Z,2.23
2022-12-08T13:31:51.422Z,2.27
2022-12-08T13:34:35.450Z,2.32
2022-12-08T13:37:55.227Z,2.35
2022-12-08T13:58:43.997Z,2.00
2022-12-08T14:01:22.060Z,1.93
2022-12-08T14:04:20.422Z,1.93
2022-12-08T14:06:41.653Z,1.88
2022-12-08T14:09:16.539Z,1.90
2022-12-08T14:11:52.667Z,1.91
2022-12-08T14:17:23.057Z,1.91
2022-12-08T14:20:02.136Z,1.90
2022-12-08T14:22:37.783Z,1.90
2022-12-08T14:25:07.524Z,1.91
2022-12-08T14:27:36.908Z,1.89
2022-12-08T14:30:15.066Z,1.89
2022-12-08T14:32:41.771Z,1.90
2022-12-08T14:35:08.572Z,1.89
2022-12-08T14:37:41.214Z,1.89
2022-12-08T14:40:25.002Z,1.92
2022-12-08T14:43:05.357Z,1.93
2022-12-08T14:45:35.280Z,1.92
2022-12-08T14:48:38.956Z,1.89
2022-12-08T14:51:16.936Z,1.89
2022-12-08T14:53:47.938Z,1.91
2022-12-08T14:56:36.880Z,1.83
2022-12-08T14:59:05.968Z,1.82
2022-12-08T15:01:33.868Z,1.84
2022-12-08T15:04:25.941Z,1.84
2022-12-08T15:07:04.915Z,1.74
2022-12-08T15:09:39.313Z,1.79
2022-12-08T15:12:13.093Z,1.78
2022-12-08T15:14:42.581Z,1.74
2022-12-08T15:17:34.005Z,1.70
2022-12-08T15:20:01.316Z,1.70
2022-12-08T15:22:29.808Z,1.64
2022-12-08T15:24:57.475Z,1.63
2022-12-08T15:27:25.923Z,1.60
2022-12-08T15:29:53.221Z,1.58
2022-12-08T15:32:22.615Z,1.49
2022-12-08T15:34:50.100Z,1.43
2022-12-08T15:37:24.809Z,1.43
2022-12-08T15:39:52.071Z,1.42
2022-12-08T15:42:18.982Z,1.48
2022-12-08T15:44:45.868Z,1.49
2022-12-08T15:47:21.339Z,1.51
2022-12-08T15:49:49.705Z,1.64
2022-12-08T15:52:22.223Z,1.64
2022-12-08T15:54:49.369Z,1.62
2022-12-08T15:57:44.199Z,1.56
2022-12-08T16:00:50.439Z,1.52
2022-12-08T16:07:19.230Z,1.45
2022-12-08T16:09:11.897Z,1.39
2022-12-08T16:12:06.504Z,1.41
2022-12-08T16:17:22.067Z,1.37
2022-12-08T16:19:49.357Z,1.36
2022-12-08T16:25:18.301Z,1.31
2022-12-08T16:30:33.529Z,1.25
2022-12-08T16:33:00.290Z,1.29
2022-12-08T16:35:27.170Z,1.30
2022-12-08T16:37:53.869Z,1.31
2022-12-08T16:40:21.046Z,1.33
2022-12-08T16:42:50.185Z,1.37
2022-12-08T16:45:24.568Z,1.38
2022-12-08T16:47:54.672Z,1.44
2022-12-08T16:50:27.111Z,1.49
2022-12-08T16:52:58.283Z,1.48
2022-12-08T16:55:25.340Z,1.52
2022-12-08T16:57:53.145Z,1.49
2022-12-08T17:00:22.942Z,1.55
2022-12-08T17:02:50.554Z,1.47
2022-12-08T17:05:19.828Z,1.46
2022-12-08T17:07:49.195Z,1.43
2022-12-08T17:10:19.059Z,1.45
2022-12-08T17:12:46.199Z,1.43
2022-12-08T17:15:16.611Z,1.40
2022-12-08T17:17:43.627Z,1.37
2022-12-08T17:20:13.968Z,1.34
2022-12-08T17:22:40.976Z,1.36
2022-12-08T17:25:08.317Z,1.37
2022-12-08T17:27:35.635Z,1.32
2022-12-08T17:30:02.472Z,1.34
2022-12-08T17:32:29.442Z,1.40
2022-12-08T17:34:56.249Z,1.37
2022-12-08T17:37:23.474Z,1.40
2022-12-08T17:39:50.263Z,1.40
2022-12-08T17:42:17.160Z,1.37
2022-12-08T17:44:46.778Z,1.41
2022-12-08T17:47:13.562Z,1.43
2022-12-08T17:49:40.235Z,1.42
2022-12-08T17:52:07.023Z,1.40
2022-12-08T17:54:36.456Z,1.41
2022-12-08T17:57:04.346Z,1.38
2022-12-08T17:59:31.628Z,1.42
2022-12-08T18:01:59.301Z,1.36
2022-12-08T18:04:28.099Z,1.35
2022-12-08T18:06:55.187Z,1.33
2022-12-08T18:09:22.215Z,1.26
2022-12-08T18:11:48.912Z,1.23
2022-12-08T18:14:16.383Z,1.15
2022-12-08T18:16:45.717Z,1.13
2022-12-08T18:19:13.948Z,1.08
2022-12-08T18:21:42.107Z,1.06
2022-12-08T18:24:15.359Z,1.06
2022-12-08T18:26:42.087Z,1.01
2022-12-08T18:29:08.835Z,1.04
2022-12-08T18:31:35.609Z,1.05
2022-12-08T18:34:02.408Z,1.05
2022-12-08T18:36:29.123Z,1.10
2022-12-08T18:38:55.871Z,1.11
2022-12-08T18:41:25.766Z,1.11
2022-12-08T18:43:57.120Z,1.00
2022-12-08T18:46:24.376Z,1.00
2022-12-08T18:48:51.737Z,0.97
2022-12-08T18:51:21.589Z,0.87
2022-12-08T18:53:49.228Z,0.82
2022-12-08T18:56:30.526Z,0.81
2022-12-08T18:59:03.288Z,0.79
2022-12-08T19:01:32.521Z,0.79
2022-12-08T19:04:27.425Z,0.77
2022-12-08T19:06:52.936Z,0.73
2022-12-08T19:09:20.788Z,0.75
2022-12-08T19:11:47.581Z,0.71
2022-12-08T19:14:14.378Z,0.70
2022-12-08T19:16:41.093Z,0.67
2022-12-08T19:19:07.831Z,0.67
2022-12-08T19:21:34.691Z,0.64
2022-12-08T19:24:02.190Z,0.67
2022-12-08T19:26:29.085Z,0.65
2022-12-08T19:28:56.226Z,0.66
2022-12-08T19:31:23.016Z,0.63
2022-12-08T19:33:49.927Z,0.61
2022-12-08T19:36:19.473Z,0.60
2022-12-08T19:39:05.336Z,0.56
2022-12-08T19:41:51.078Z,0.55
2022-12-08T19:44:38.664Z,0.57
2022-12-08T19:47:05.865Z,0.51
2022-12-08T19:49:33.085Z,0.52
2022-12-08T19:52:00.322Z,0.51
2022-12-08T19:54:28.528Z,0.48
2022-12-08T19:56:55.657Z,0.46
2022-12-08T19:59:26.156Z,0.45
2022-12-08T20:01:55.918Z,0.39
2022-12-08T20:04:24.385Z,0.33
2022-12-08T20:06:52.271Z,0.35
2022-12-08T20:09:19.847Z,0.34
2022-12-08T20:11:46.984Z,0.33
2022-12-08T20:14:13.886Z,0.32
2022-12-08T20:16:42.012Z,0.31
2022-12-08T20:19:09.837Z,0.32
2022-12-08T20:21:36.639Z,0.28
2022-12-08T20:24:04.728Z,0.28
2022-12-08T20:26:31.878Z,0.30
2022-12-08T20:28:58.685Z,0.32
2022-12-08T20:31:28.043Z,0.32
2022-12-08T20:33:55.400Z,0.36
2022-12-08T20:36:22.822Z,0.32
2022-12-08T20:38:52.604Z,0.33
2022-12-08T20:41:20.248Z,0.34
2022-12-08T20:43:47.899Z,0.36
2022-12-08T20:46:17.205Z,0.32
2022-12-08T20:48:44.645Z,0.37
2022-12-08T20:51:19.561Z,0.31
2022-12-08T20:53:47.458Z,0.37
2022-12-08T20:56:19.156Z,0.34
2022-12-08T20:58:46.096Z,0.31
2022-12-08T21:01:15.033Z,0.33
2022-12-08T21:03:47.507Z,0.30
2022-12-08T21:06:15.220Z,0.26
2022-12-08T21:08:43.066Z,0.23
2022-12-08T21:11:10.714Z,0.19
2022-12-08T21:13:39.143Z,0.19
2022-12-08T21:16:09.305Z,0.20
2022-12-08T21:18:39.726Z,0.21
2022-12-08T21:21:15.584Z,0.23
2022-12-08T21:23:42.915Z,0.21
2022-12-08T21:26:16.622Z,0.18
2022-12-08T21:28:46.388Z,0.17
2022-12-08T21:31:18.300Z,0.15
2022-12-08T21:33:45.458Z,0.22
2022-12-08T21:36:17.420Z,0.16
2022-12-08T21:38:44.693Z,0.12
2022-12-08T21:41:14.531Z,0.12
2022-12-08T21:43:42.134Z,0.13
2022-12-08T21:46:20.811Z,0.14
2022-12-08T21:48:47.767Z,0.12
2022-12-08T21:51:14.829Z,0.09
2022-12-08T21:53:43.964Z,0.10
2022-12-08T21:56:11.084Z,0.11
2022-12-08T21:58:40.918Z,0.08
2022-12-08T22:01:09.438Z,0.07
2022-12-08T22:03:38.705Z,0.09
2022-12-08T22:06:12.441Z,0.07
2022-12-08T22:08:42.457Z,0.04
2022-12-08T22:11:11.385Z,0.02
2022-12-08T22:13:40.140Z,0.05
2022-12-08T22:16:11.997Z,0.09
2022-12-08T22:18:41.148Z,0.06
2022-12-08T22:21:16.721Z,0.03
2022-12-08T22:23:45.200Z,0.05
2022-12-08T22:26:13.964Z,-0.01
2022-12-08T22:28:44.439Z,-0.06
2022-12-08T22:31:21.090Z,-0.10
2022-12-08T22:33:50.049Z,-0.16
2022-12-08T22:36:24.529Z,-0.13
2022-12-08T22:38:52.417Z,-0.14
2022-12-08T22:41:24.482Z,-0.21
2022-12-08T22:43:53.841Z,-0.22
2022-12-08T22:46:23.390Z,-0.20
2022-12-08T22:48:51.426Z,-0.17
2022-12-08T22:51:18.814Z,-0.22
2022-12-08T22:53:46.640Z,-0.21
2022-12-08T22:56:14.953Z,-0.23
2022-12-08T22:58:44.489Z,-0.24
2022-12-08T23:01:27.273Z,-0.02
2022-12-08T23:03:54.366Z,0.11
2022-12-08T23:06:21.690Z,0.22
2022-12-08T23:08:48.654Z,0.29
2022-12-08T23:11:15.477Z,0.29
2022-12-08T23:13:42.317Z,0.32
2022-12-08T23:16:10.517Z,0.31
2022-12-08T23:18:41.178Z,0.29
2022-12-08T23:21:11.145Z,0.34
2022-12-08T23:23:38.595Z,0.38
2022-12-08T23:26:13.857Z,0.37
2022-12-08T23:28:41.481Z,0.41
2022-12-08T23:31:08.874Z,0.40
2022-12-08T23:33:36.334Z,0.34
2022-12-08T23:36:03.166Z,0.31
2022-12-08T23:38:30.330Z,0.38
2022-12-08T23:41:04.286Z,0.36
2022-12-08T23:43:31.267Z,0.34
2022-12-08T23:45:58.325Z,0.27
2022-12-08T23:48:25.752Z,0.29
2022-12-08T23:50:52.690Z,0.34
2022-12-08T23:53:19.534Z,0.30
2022-12-08T23:55:46.451Z,0.32
2022-12-08T23:58:13.180Z,0.24
